Time;durP1;ratioP1;P1;durP2;ratioP2;P2;SDS_P1;SDS_P2;PMS_P1;PMS_P2;Temp;Humidity;BMP_temperature;BMP_pressure;BME280_temperature;BME280_humidity;BME280_pressure;Samples;Min_cycle;Max_cycle;Signal;HPM_P1;HPM_P2
2020/12/26 00:01:16;;;;;;;16.23;10.50;;;1.70;99.90;;;;;;5029709;28;20033;-52
2020/12/26 00:03:43;;;;;;;19.52;12.25;;;1.70;99.90;;;;;;5030112;28;20026;-61
2020/12/26 00:06:12;;;;;;;20.20;11.50;;;1.70;99.90;;;;;;5029932;28;20072;-66
2020/12/26 00:08:38;;;;;;;15.63;11.57;;;1.60;99.90;;;;;;5012587;28;20391;-59
2020/12/26 00:11:07;;;;;;;21.30;12.48;;;1.50;99.90;;;;;;5029509;28;20255;-59
2020/12/26 00:13:33;;;;;;;22.77;12.93;;;1.60;99.90;;;;;;5012523;28;20026;-67
2020/12/26 00:15:58;;;;;;;16.38;12.35;;;1.50;99.90;;;;;;5013080;28;20071;-62
2020/12/26 00:18:24;;;;;;;25.75;14.68;;;1.40;99.90;;;;;;5030355;28;20032;-54
2020/12/26 00:20:49;;;;;;;22.30;14.30;;;1.60;99.90;;;;;;5029624;28;20049;-51
2020/12/26 00:23:15;;;;;;;30.70;14.63;;;1.70;99.90;;;;;;5027636;28;20040;-54
2020/12/26 00:25:41;;;;;;;27.88;15.32;;;1.70;99.90;;;;;;5010869;28;20029;-63
2020/12/26 00:28:07;;;;;;;24.15;14.00;;;1.60;99.90;;;;;;5010356;28;20014;-55
2020/12/26 00:30:33;;;;;;;21.85;13.38;;;1.40;99.90;;;;;;5010870;28;20467;-56
2020/12/26 00:32:58;;;;;;;28.80;14.07;;;1.40;99.90;;;;;;4992279;28;20455;-63
2020/12/26 00:35:24;;;;;;;23.73;12.65;;;1.30;99.90;;;;;;5012718;28;20026;-52
2020/12/26 00:37:51;;;;;;;25.50;11.95;;;1.20;99.90;;;;;;4996380;28;20387;-51
2020/12/26 00:40:16;;;;;;;21.40;14.18;;;1.20;99.90;;;;;;4995713;28;20025;-48
2020/12/26 00:42:42;;;;;;;21.73;12.25;;;1.20;99.90;;;;;;5013136;28;20348;-50
2020/12/26 00:45:09;;;;;;;20.92;12.18;;;1.20;99.90;;;;;;5014037;28;20033;-45
2020/12/26 00:47:34;;;;;;;20.60;12.90;;;1.20;99.90;;;;;;5013801;28;20029;-48
2020/12/26 00:49:59;;;;;;;21.90;12.88;;;1.10;99.90;;;;;;5012544;28;20072;-51
2020/12/26 00:52:25;;;;;;;22.73;12.73;;;1.20;99.90;;;;;;5013041;28;20034;-51
2020/12/26 00:54:50;;;;;;;26.83;13.55;;;1.20;99.90;;;;;;5013385;28;20248;-57
2020/12/26 00:57:16;;;;;;;17.05;12.63;;;1.20;99.90;;;;;;5013043;28;20037;-50
2020/12/26 00:59:41;;;;;;;19.52;11.55;;;1.20;99.90;;;;;;5012989;28;20018;-55
2020/12/26 01:02:07;;;;;;;20.52;11.85;;;1.30;99.90;;;;;;5012799;28;20030;-48
2020/12/26 01:04:32;;;;;;;21.15;13.18;;;1.30;99.90;;;;;;5012975;28;20045;-50
2020/12/26 01:06:58;;;;;;;23.35;14.35;;;1.30;99.90;;;;;;5013031;28;20356;-52
2020/12/26 01:09:24;;;;;;;18.80;13.07;;;1.40;99.90;;;;;;5013057;28;20029;-53
2020/12/26 01:11:52;;;;;;;27.75;13.65;;;1.40;99.90;;;;;;5033463;22;20028;-55
2020/12/26 01:14:18;;;;;;;28.25;13.43;;;1.40;99.90;;;;;;5053374;28;20443;-53
2020/12/26 01:16:51;;;;;;;20.35;13.57;;;1.40;99.90;;;;;;5035464;28;20102;-54
2020/12/26 01:19:18;;;;;;;26.35;13.95;;;1.40;99.90;;;;;;5053302;28;20025;-49
2020/12/26 01:21:48;;;;;;;25.25;12.05;;;1.40;99.90;;;;;;5052525;28;20021;-50
2020/12/26 01:24:14;;;;;;;21.85;14.93;;;1.50;99.90;;;;;;5053204;28;20021;-50
2020/12/26 01:26:39;;;;;;;25.83;14.15;;;1.50;99.90;;;;;;5053181;28;20289;-51
2020/12/26 01:29:05;;;;;;;27.30;14.20;;;1.80;99.90;;;;;;5053229;28;20029;-52
2020/12/26 01:31:30;;;;;;;23.90;13.57;;;2.00;99.90;;;;;;5034436;28;20429;-54
2020/12/26 01:33:56;;;;;;;23.58;14.88;;;1.90;99.90;;;;;;5053492;28;20021;-53
2020/12/26 01:36:21;;;;;;;31.83;14.23;;;1.90;99.90;;;;;;5053193;28;20104;-49
2020/12/26 01:38:46;;;;;;;24.08;14.25;;;1.80;99.90;;;;;;5052878;28;20025;-53
2020/12/26 01:41:15;;;;;;;25.60;13.98;;;1.70;99.90;;;;;;5052719;28;20487;-55
2020/12/26 01:43:56;;;;;;;30.17;15.15;;;1.60;99.90;;;;;;5052396;28;20486;-53
2020/12/26 01:46:27;;;;;;;24.52;15.18;;;1.80;99.90;;;;;;5051644;28;20029;-50
2020/12/26 01:48:53;;;;;;;26.90;15.27;;;1.70;99.90;;;;;;5052855;28;20021;-52
2020/12/26 01:51:20;;;;;;;22.20;14.40;;;1.80;99.90;;;;;;5052143;28;20067;-50
2020/12/26 01:53:48;;;;;;;22.98;13.18;;;1.70;99.90;;;;;;5052539;28;20025;-49
2020/12/26 01:56:13;;;;;;;29.90;14.60;;;1.60;99.90;;;;;;5034926;28;20108;-51
2020/12/26 01:58:42;;;;;;;23.80;14.82;;;1.50;99.90;;;;;;5052452;28;20172;-51
2020/12/26 02:01:08;;;;;;;27.05;13.70;;;1.50;99.90;;;;;;5052643;28;20056;-48
2020/12/26 02:03:34;;;;;;;21.58;13.70;;;1.50;99.90;;;;;;5052104;28;20045;-49
2020/12/26 02:06:00;;;;;;;20.00;12.90;;;1.40;99.90;;;;;;5052589;28;20031;-50
2020/12/26 02:08:25;;;;;;;23.73;13.93;;;1.40;99.90;;;;;;5052393;28;20478;-53
2020/12/26 02:10:51;;;;;;;19.05;12.82;;;1.40;99.90;;;;;;5052686;28;20036;-52
2020/12/26 02:13:16;;;;;;;22.17;13.18;;;1.40;99.90;;;;;;5051807;28;20488;-56
2020/12/26 02:15:42;;;;;;;21.98;13.75;;;1.50;99.90;;;;;;5052349;28;20371;-49
2020/12/26 02:18:07;;;;;;;25.80;14.95;;;1.60;99.90;;;;;;5052324;28;20159;-51
2020/12/26 02:20:34;;;;;;;24.98;14.25;;;1.70;99.90;;;;;;5052598;28;20466;-52
2020/12/26 02:23:03;;;;;;;21.88;13.60;;;1.60;99.90;;;;;;5051550;28;20435;-53
2020/12/26 02:25:28;;;;;;;19.13;12.80;;;1.60;99.90;;;;;;5052263;28;20013;-50
2020/12/26 02:27:55;;;;;;;28.45;14.90;;;1.50;99.90;;;;;;5034022;28;20029;-56
2020/12/26 02:30:20;;;;;;;22.55;13.48;;;1.50;99.90;;;;;;5052005;28;20029;-50
2020/12/26 02:32:46;;;;;;;26.23;13.93;;;1.50;99.90;;;;;;5051258;28;20036;-55
2020/12/26 02:35:11;;;;;;;20.92;12.43;;;1.50;99.90;;;;;;5034033;28;20025;-52
2020/12/26 02:37:37;;;;;;;24.98;12.45;;;1.60;99.90;;;;;;5051045;28;20107;-55
2020/12/26 02:40:03;;;;;;;25.48;12.40;;;1.70;99.90;;;;;;5053741;28;20040;-54
2020/12/26 02:42:28;;;;;;;25.25;14.20;;;1.70;99.90;;;;;;5051183;28;20025;-53
2020/12/26 02:44:54;;;;;;;26.48;13.23;;;1.60;99.90;;;;;;5051835;28;20494;-52
2020/12/26 02:47:19;;;;;;;26.80;14.20;;;1.60;99.90;;;;;;5051918;28;20123;-51
2020/12/26 02:49:44;;;;;;;29.35;14.57;;;1.70;99.90;;;;;;5051728;28;20078;-52
2020/12/26 02:52:10;;;;;;;18.92;12.60;;;1.70;99.90;;;;;;5051002;28;20386;-50
2020/12/26 02:54:35;;;;;;;22.70;13.43;;;1.70;99.90;;;;;;5051557;28;20029;-48
2020/12/26 02:57:01;;;;;;;20.77;12.35;;;1.80;99.90;;;;;;5050951;28;20029;-56
2020/12/26 02:59:26;;;;;;;21.95;13.32;;;1.70;99.90;;;;;;5051547;28;20120;-54
2020/12/26 03:01:52;;;;;;;23.00;13.60;;;1.70;99.90;;;;;;5033049;28;20029;-49
2020/12/26 03:04:17;;;;;;;22.67;12.25;;;1.70;99.90;;;;;;5051379;28;20025;-53
2020/12/26 03:06:43;;;;;;;22.10;13.77;;;1.70;99.90;;;;;;5051058;28;20112;-52
2020/12/26 03:09:08;;;;;;;25.73;14.98;;;1.70;99.90;;;;;;5050296;28;20029;-54
2020/12/26 03:11:34;;;;;;;23.45;13.65;;;1.70;99.90;;;;;;5050183;28;20521;-53
2020/12/26 03:13:59;;;;;;;27.58;13.43;;;1.70;99.90;;;;;;5051215;28;20028;-56
2020/12/26 03:16:25;;;;;;;22.70;13.15;;;1.60;99.90;;;;;;5051221;28;20445;-52
2020/12/26 03:18:50;;;;;;;19.48;13.52;;;1.60;99.90;;;;;;5051031;28;20029;-51
2020/12/26 03:21:15;;;;;;;29.42;13.70;;;1.50;99.90;;;;;;5051007;28;20032;-52
2020/12/26 03:23:41;;;;;;;17.58;12.38;;;1.50;99.90;;;;;;5050305;28;20053;-56
2020/12/26 03:26:07;;;;;;;16.08;10.50;;;1.50;99.90;;;;;;5050939;28;20067;-50
2020/12/26 03:28:32;;;;;;;17.20;12.25;;;1.50;99.90;;;;;;5051599;28;20021;-49
2020/12/26 03:30:58;;;;;;;25.08;11.98;;;1.50;99.90;;;;;;5050788;28;20024;-54
2020/12/26 03:33:23;;;;;;;18.50;11.23;;;1.60;99.90;;;;;;5050305;28;20029;-52
2020/12/26 03:35:49;;;;;;;20.65;12.43;;;1.60;99.90;;;;;;5050866;28;20056;-48
2020/12/26 03:38:14;;;;;;;23.08;11.82;;;1.70;99.90;;;;;;5050853;28;20394;-48
2020/12/26 03:40:40;;;;;;;20.00;12.20;;;1.90;99.90;;;;;;5050706;28;20490;-51
2020/12/26 03:43:05;;;;;;;19.05;12.52;;;2.00;99.90;;;;;;5032195;28;20048;-53
2020/12/26 03:45:31;;;;;;;27.02;11.82;;;2.00;99.90;;;;;;5050795;28;20033;-50
2020/12/26 03:47:56;;;;;;;27.40;13.07;;;2.00;99.90;;;;;;5050598;28;20487;-51
2020/12/26 03:50:22;;;;;;;21.65;12.68;;;2.00;99.90;;;;;;5050708;28;20100;-53
2020/12/26 03:52:47;;;;;;;21.55;11.45;;;2.00;99.90;;;;;;5050494;28;20024;-49
2020/12/26 03:55:13;;;;;;;19.75;12.07;;;2.00;99.90;;;;;;5050710;28;20083;-54
2020/12/26 03:57:38;;;;;;;22.08;13.50;;;2.00;99.90;;;;;;5050861;28;20107;-54
2020/12/26 04:00:05;;;;;;;23.45;13.48;;;2.00;99.90;;;;;;5050763;28;20039;-51
2020/12/26 04:02:31;;;;;;;22.50;12.73;;;2.10;99.90;;;;;;5049817;28;20033;-55
2020/12/26 04:04:56;;;;;;;24.52;14.02;;;2.20;99.90;;;;;;5050435;28;20029;-55
2020/12/26 04:07:22;;;;;;;26.95;13.15;;;2.20;99.90;;;;;;5032658;28;20018;-51
2020/12/26 04:09:47;;;;;;;22.83;12.65;;;2.20;99.90;;;;;;5049606;28;20029;-50
2020/12/26 04:12:13;;;;;;;17.58;11.25;;;2.20;99.90;;;;;;5031829;28;20041;-51
2020/12/26 04:14:38;;;;;;;19.10;11.32;;;2.10;99.90;;;;;;5032570;28;20094;-49
2020/12/26 04:17:03;;;;;;;23.17;11.63;;;2.10;99.90;;;;;;5050336;28;20037;-49
2020/12/26 04:19:29;;;;;;;23.45;12.52;;;2.10;99.90;;;;;;5050344;28;20397;-50
2020/12/26 04:21:55;;;;;;;21.35;13.15;;;2.00;99.90;;;;;;5049579;28;20062;-55
2020/12/26 04:24:21;;;;;;;19.77;13.25;;;2.00;99.90;;;;;;5050219;28;20025;-55
2020/12/26 04:26:46;;;;;;;19.15;12.57;;;1.90;99.90;;;;;;5050280;28;20422;-51
2020/12/26 04:29:13;;;;;;;17.50;12.35;;;1.80;99.90;;;;;;5032513;28;20474;-50
2020/12/26 04:31:38;;;;;;;20.83;12.93;;;1.70;99.90;;;;;;5049603;28;20031;-50
2020/12/26 04:34:04;;;;;;;19.77;12.93;;;1.70;99.90;;;;;;5032163;28;20017;-50
2020/12/26 04:36:29;;;;;;;19.73;11.80;;;1.60;99.90;;;;;;5030357;28;20033;-49
2020/12/26 04:38:55;;;;;;;21.50;11.95;;;1.60;99.90;;;;;;5050016;28;20033;-52
2020/12/26 04:41:20;;;;;;;18.20;11.65;;;1.70;99.90;;;;;;5031927;28;20118;-50
2020/12/26 04:43:46;;;;;;;19.65;12.27;;;1.70;99.90;;;;;;5049635;28;20052;-51
2020/12/26 04:46:16;;;;;;;21.48;11.93;;;1.70;99.90;;;;;;5050317;28;20375;-50
2020/12/26 04:48:49;;;;;;;19.23;11.93;;;1.70;99.90;;;;;;5032067;28;20167;-52
2020/12/26 04:51:17;;;;;;;27.33;12.60;;;1.70;99.90;;;;;;5050041;28;20020;-51
2020/12/26 04:53:45;;;;;;;21.98;12.63;;;1.80;99.90;;;;;;5049314;28;20025;-49
2020/12/26 04:56:11;;;;;;;19.42;12.32;;;1.90;99.90;;;;;;5032353;28;20418;-48
2020/12/26 04:58:40;;;;;;;21.10;12.50;;;1.90;99.90;;;;;;5049944;28;20047;-49
2020/12/26 05:01:06;;;;;;;21.58;12.15;;;1.80;99.90;;;;;;5049934;28;20025;-53
2020/12/26 05:03:34;;;;;;;20.35;12.95;;;1.80;99.90;;;;;;5048968;28;20509;-50
2020/12/26 05:06:04;;;;;;;19.85;11.80;;;1.80;99.90;;;;;;5049905;28;20020;-52
2020/12/26 05:08:30;;;;;;;25.40;13.85;;;1.80;99.90;;;;;;5048677;28;20029;-54
2020/12/26 05:10:56;;;;;;;25.02;14.55;;;1.80;99.90;;;;;;5049701;28;20390;-51
2020/12/26 05:13:22;;;;;;;23.02;11.82;;;1.90;99.90;;;;;;5049243;28;20071;-51
2020/12/26 05:15:47;;;;;;;17.20;12.52;;;2.00;99.90;;;;;;5050840;28;20494;-56
2020/12/26 05:18:13;;;;;;;25.58;14.32;;;1.90;99.90;;;;;;5050694;28;20108;-49
2020/12/26 05:20:38;;;;;;;26.67;13.25;;;1.90;99.90;;;;;;5050747;28;20611;-51
2020/12/26 05:23:09;;;;;;;20.00;13.50;;;1.90;99.90;;;;;;5052600;28;20037;-51
2020/12/26 05:25:39;;;;;;;25.45;13.10;;;1.80;99.90;;;;;;5053603;28;20437;-51
2020/12/26 05:28:14;;;;;;;31.42;13.48;;;1.80;99.90;;;;;;5053461;28;20029;-50
2020/12/26 05:30:40;;;;;;;25.25;13.25;;;1.80;99.90;;;;;;5053264;28;20073;-48
2020/12/26 05:33:07;;;;;;;22.25;13.10;;;1.80;99.90;;;;;;5052492;28;20036;-48
2020/12/26 05:35:37;;;;;;;28.63;15.52;;;1.80;99.90;;;;;;5053039;28;20028;-54
2020/12/26 05:38:25;;;;;;;21.10;12.35;;;1.90;99.90;;;;;;5053104;28;20059;-52
2020/12/26 05:40:53;;;;;;;19.65;13.43;;;1.90;99.90;;;;;;5053134;28;20028;-53
2020/12/26 05:43:22;;;;;;;20.13;13.02;;;2.00;99.90;;;;;;5051820;28;20029;-53
2020/12/26 05:45:48;;;;;;;23.30;13.40;;;1.90;99.90;;;;;;5052707;28;20017;-52
2020/12/26 05:48:16;;;;;;;22.08;13.43;;;1.80;99.90;;;;;;5052788;28;20112;-55
2020/12/26 05:50:42;;;;;;;24.75;12.65;;;1.80;99.90;;;;;;5052800;28;20027;-52
2020/12/26 05:53:11;;;;;;;24.02;12.48;;;1.80;99.90;;;;;;5051794;28;20024;-56
2020/12/26 05:55:38;;;;;;;28.63;13.65;;;1.70;99.90;;;;;;5052454;28;20425;-52
2020/12/26 05:58:04;;;;;;;23.98;12.35;;;1.70;99.90;;;;;;5034467;28;20025;-56
2020/12/26 06:00:34;;;;;;;29.40;14.32;;;1.70;99.90;;;;;;5052377;28;20444;-52
2020/12/26 06:03:00;;;;;;;24.10;13.85;;;1.70;99.90;;;;;;5051487;28;20062;-53
2020/12/26 06:05:27;;;;;;;25.48;12.75;;;1.70;99.90;;;;;;5052781;28;20029;-56
2020/12/26 06:07:52;;;;;;;23.70;13.32;;;1.70;99.90;;;;;;5052378;28;20100;-53
2020/12/26 06:10:18;;;;;;;24.65;12.27;;;1.70;99.90;;;;;;5052648;28;20517;-55
2020/12/26 06:12:44;;;;;;;27.13;13.75;;;1.80;99.90;;;;;;5051587;28;20131;-51
2020/12/26 06:15:16;;;;;;;22.77;13.73;;;1.80;99.90;;;;;;5052423;28;20037;-49
2020/12/26 06:17:47;;;;;;;23.95;13.02;;;1.80;99.90;;;;;;5052124;28;20032;-55
2020/12/26 06:20:12;;;;;;;22.85;14.27;;;1.70;99.90;;;;;;5052198;28;20056;-54
2020/12/26 06:22:49;;;;;;;23.20;12.38;;;1.70;99.90;;;;;;5051202;28;20502;-52
2020/12/26 06:25:17;;;;;;;19.30;12.63;;;1.70;99.90;;;;;;5051963;28;20033;-53
2020/12/26 06:27:46;;;;;;;20.88;12.10;;;1.60;99.90;;;;;;5051988;28;20490;-50
2020/12/26 06:30:11;;;;;;;30.52;16.05;;;1.70;99.90;;;;;;5052242;28;20021;-49
2020/12/26 06:32:39;;;;;;;19.80;12.80;;;1.70;99.90;;;;;;5050232;28;20071;-50
2020/12/26 06:35:05;;;;;;;30.42;13.43;;;1.60;99.90;;;;;;5051918;28;20025;-53
2020/12/26 06:37:30;;;;;;;20.75;13.00;;;1.50;99.90;;;;;;5050473;28;20485;-56
2020/12/26 06:39:56;;;;;;;21.08;13.48;;;1.50;99.90;;;;;;5051814;28;20037;-48
2020/12/26 06:42:23;;;;;;;22.48;13.75;;;1.50;99.90;;;;;;5050999;28;20054;-51
2020/12/26 06:44:49;;;;;;;25.63;14.07;;;1.50;99.90;;;;;;5051539;28;20493;-53
2020/12/26 06:47:37;;;;;;;27.48;14.68;;;1.40;99.90;;;;;;5051631;28;20122;-53
2020/12/26 06:50:30;;;;;;;23.77;14.10;;;1.40;99.90;;;;;;5051607;28;20410;-54
2020/12/26 06:52:55;;;;;;;26.50;14.68;;;1.40;99.90;;;;;;5047379;28;20454;-53
2020/12/26 06:55:44;;;;;;;24.27;14.27;;;1.40;99.90;;;;;;5051527;28;20052;-55
2020/12/26 06:58:25;;;;;;;26.83;14.73;;;1.40;99.90;;;;;;5051497;28;20032;-48
2020/12/26 07:00:51;;;;;;;24.17;14.00;;;1.60;99.90;;;;;;5033302;28;20025;-48
2020/12/26 07:03:20;;;;;;;35.72;15.38;;;1.60;99.90;;;;;;5032685;28;20036;-49
2020/12/26 07:05:46;;;;;;;25.77;14.80;;;1.60;99.90;;;;;;5051389;28;20021;-47
2020/12/26 07:08:26;;;;;;;24.25;14.43;;;1.60;99.90;;;;;;5049802;28;20028;-49
2020/12/26 07:10:53;;;;;;;24.75;13.52;;;1.70;99.90;;;;;;5051408;28;20490;-48
2020/12/26 07:13:41;;;;;;;26.00;15.60;;;1.70;99.90;;;;;;5066477;22;20045;-48
2020/12/26 07:16:53;;;;;;;22.45;13.75;;;1.70;99.90;;;;;;5051501;28;20396;-52
2020/12/26 07:19:24;;;;;;;24.75;13.43;;;1.70;99.90;;;;;;5047107;28;20037;-49
2020/12/26 07:22:01;;;;;;;28.17;14.70;;;1.60;99.90;;;;;;5050306;28;20060;-53
2020/12/26 07:24:35;;;;;;;23.55;13.70;;;1.70;99.90;;;;;;5051169;28;20025;-52
2020/12/26 07:27:14;;;;;;;22.45;14.32;;;1.80;99.90;;;;;;5050886;28;20025;-51
2020/12/26 07:30:00;;;;;;;26.52;14.38;;;1.80;99.90;;;;;;5050877;28;20033;-56
2020/12/26 07:32:46;;;;;;;24.85;13.82;;;1.80;99.90;;;;;;5050290;28;20074;-54
2020/12/26 07:35:12;;;;;;;24.80;14.52;;;1.80;99.90;;;;;;5050789;28;20025;-58
2020/12/26 07:37:38;;;;;;;21.90;14.32;;;1.80;99.90;;;;;;5051011;28;20028;-48
2020/12/26 07:40:05;;;;;;;24.75;13.52;;;1.90;99.90;;;;;;5050788;28;20029;-53
2020/12/26 07:42:31;;;;;;;29.92;14.45;;;1.90;99.90;;;;;;5049718;28;20104;-53
2020/12/26 07:44:57;;;;;;;24.58;13.55;;;2.00;99.90;;;;;;5032801;28;20363;-52
2020/12/26 07:47:23;;;;;;;25.15;13.73;;;2.00;99.90;;;;;;5050708;28;20067;-54
2020/12/26 07:49:58;;;;;;;22.88;14.25;;;2.10;99.90;;;;;;5050645;28;20230;-48
2020/12/26 07:52:24;;;;;;;27.63;13.73;;;2.20;99.90;;;;;;5049883;28;20671;-54
2020/12/26 07:55:00;;;;;;;25.33;13.52;;;2.20;99.90;;;;;;5050448;28;20033;-55
2020/12/26 07:57:29;;;;;;;23.42;13.80;;;2.20;99.90;;;;;;5050607;28;20028;-49
2020/12/26 07:59:55;;;;;;;25.63;14.32;;;2.20;99.90;;;;;;5050746;28;20033;-59
2020/12/26 08:02:21;;;;;;;29.23;14.52;;;2.30;99.90;;;;;;5049813;28;20104;-55
2020/12/26 08:04:48;;;;;;;23.67;14.38;;;2.30;99.90;;;;;;5050806;28;20082;-59
2020/12/26 08:07:15;;;;;;;26.30;14.82;;;2.30;99.90;;;;;;5033481;28;20027;-51
2020/12/26 08:09:50;;;;;;;24.25;13.82;;;2.10;99.90;;;;;;5052110;28;20033;-59
2020/12/26 08:12:16;;;;;;;29.98;15.68;;;2.10;99.90;;;;;;5032191;28;20032;-60
2020/12/26 08:14:42;;;;;;;30.20;13.98;;;2.10;99.90;;;;;;5051271;28;20121;-57
2020/12/26 08:17:07;;;;;;;27.38;13.77;;;2.10;99.90;;;;;;5053548;28;20085;-54
2020/12/26 08:19:37;;;;;;;26.52;15.38;;;2.00;99.90;;;;;;5035964;28;20029;-58
2020/12/26 08:22:03;;;;;;;22.83;13.73;;;2.00;99.90;;;;;;5054019;28;20393;-58
2020/12/26 08:24:29;;;;;;;25.70;14.23;;;2.00;99.90;;;;;;5035562;28;20025;-57
2020/12/26 08:26:56;;;;;;;29.55;14.13;;;2.00;99.90;;;;;;5036861;28;20402;-60
2020/12/26 08:29:32;;;;;;;25.88;14.30;;;2.00;99.90;;;;;;5053841;28;20017;-58
2020/12/26 08:32:11;;;;;;;35.03;14.73;;;2.00;99.90;;;;;;5051884;28;20069;-53
2020/12/26 08:34:52;;;;;;;28.00;14.93;;;2.00;99.90;;;;;;5051287;28;20022;-59
2020/12/26 08:37:29;;;;;;;26.23;14.48;;;2.10;99.90;;;;;;5031734;28;20029;-56
2020/12/26 08:40:00;;;;;;;25.33;15.18;;;2.10;99.90;;;;;;5032987;28;20032;-52
2020/12/26 08:42:27;;;;;;;22.00;14.23;;;2.20;99.90;;;;;;5049473;28;20028;-60
2020/12/26 08:44:53;;;;;;;23.98;14.35;;;2.20;99.90;;;;;;5050527;28;20053;-52
2020/12/26 08:47:32;;;;;;;24.38;14.52;;;2.30;99.90;;;;;;5050436;28;20063;-50
2020/12/26 08:49:58;;;;;;;31.40;16.00;;;2.30;99.90;;;;;;5032584;28;20033;-55
2020/12/26 08:52:25;;;;;;;24.98;15.77;;;2.30;99.90;;;;;;5031581;28;20029;-55
2020/12/26 08:55:01;;;;;;;23.95;15.15;;;2.40;99.90;;;;;;5049998;28;20035;-51
2020/12/26 08:57:26;;;;;;;29.75;15.38;;;2.50;99.90;;;;;;5036382;28;20028;-56
2020/12/26 08:59:52;;;;;;;27.85;15.48;;;2.70;99.90;;;;;;5036078;28;20028;-56
2020/12/26 09:02:17;;;;;;;22.35;14.65;;;3.00;99.90;;;;;;5053253;28;20367;-60
2020/12/26 09:04:43;;;;;;;22.75;15.05;;;3.30;99.90;;;;;;5053726;28;20025;-57
2020/12/26 09:07:21;;;;;;;23.13;13.55;;;3.60;99.90;;;;;;5052246;28;20029;-60
2020/12/26 09:09:47;;;;;;;18.55;11.57;;;4.10;99.90;;;;;;5054080;28;20029;-55
2020/12/26 09:12:15;;;;;;;19.77;11.90;;;4.60;99.90;;;;;;5052944;28;20043;-58
2020/12/26 09:14:40;;;;;;;17.85;13.00;;;5.00;98.70;;;;;;5053684;28;20029;-60
2020/12/26 09:17:06;;;;;;;18.17;11.60;;;5.30;98.10;;;;;;5053630;28;20025;-60
2020/12/26 09:19:45;;;;;;;19.55;12.13;;;5.40;98.20;;;;;;5053457;28;20036;-57
2020/12/26 09:22:12;;;;;;;19.23;12.35;;;5.40;97.60;;;;;;5052721;28;20021;-54
2020/12/26 09:24:38;;;;;;;18.45;12.27;;;5.40;98.20;;;;;;5035194;28;20052;-57
2020/12/26 09:27:04;;;;;;;20.90;12.80;;;5.50;97.90;;;;;;5053070;28;20501;-61
2020/12/26 09:29:29;;;;;;;19.58;12.65;;;5.40;97.70;;;;;;5053248;28;20125;-60
2020/12/26 09:31:55;;;;;;;19.25;13.38;;;5.10;97.70;;;;;;5053243;28;20103;-59
2020/12/26 09:34:22;;;;;;;20.77;13.13;;;5.00;99.10;;;;;;5052705;28;20016;-57
2020/12/26 09:37:01;;;;;;;21.00;12.23;;;4.60;99.00;;;;;;5053280;28;20021;-60
2020/12/26 09:39:27;;;;;;;21.13;13.20;;;4.30;99.90;;;;;;5053268;28;20031;-53
2020/12/26 09:41:52;;;;;;;20.23;12.70;;;4.00;99.90;;;;;;5052908;28;20553;-55
2020/12/26 09:44:18;;;;;;;20.83;12.20;;;3.90;99.90;;;;;;5052482;28;20029;-59
2020/12/26 09:46:44;;;;;;;23.00;13.13;;;3.70;99.90;;;;;;5053213;28;20480;-60
2020/12/26 09:49:10;;;;;;;22.83;14.43;;;3.60;99.90;;;;;;5052852;28;20024;-57
2020/12/26 09:51:35;;;;;;;18.75;13.25;;;3.40;99.90;;;;;;5052796;28;20467;-57
2020/12/26 09:54:01;;;;;;;24.42;13.35;;;3.40;99.90;;;;;;5052247;28;20056;-55
2020/12/26 09:56:27;;;;;;;22.67;14.68;;;3.30;99.90;;;;;;5053066;28;20033;-55
2020/12/26 09:58:53;;;;;;;20.23;12.95;;;3.20;99.90;;;;;;5052739;28;20044;-57
2020/12/26 10:01:21;;;;;;;22.65;14.70;;;3.30;99.90;;;;;;5052900;28;20115;-57
2020/12/26 10:03:48;;;;;;;22.02;13.73;;;3.20;99.90;;;;;;5052077;28;20049;-57
2020/12/26 10:06:19;;;;;;;20.60;13.52;;;3.10;99.90;;;;;;5034546;28;20437;-54
2020/12/26 10:08:46;;;;;;;24.50;13.25;;;3.10;99.90;;;;;;5051786;28;20021;-58
2020/12/26 10:11:13;;;;;;;20.67;13.00;;;3.20;99.90;;;;;;5052851;28;20493;-55
2020/12/26 10:13:39;;;;;;;24.90;14.63;;;3.10;99.90;;;;;;5051684;28;20052;-60
2020/12/26 10:16:04;;;;;;;20.50;12.82;;;3.20;99.90;;;;;;5052583;28;20021;-57
2020/12/26 10:18:30;;;;;;;24.80;14.00;;;3.20;99.90;;;;;;5052963;28;20043;-54
2020/12/26 10:20:56;;;;;;;20.25;13.40;;;3.10;99.90;;;;;;5053366;28;20524;-52
2020/12/26 10:23:22;;;;;;;27.02;15.07;;;3.10;99.90;;;;;;5035527;28;20083;-54
2020/12/26 10:25:48;;;;;;;21.15;13.45;;;3.20;99.90;;;;;;5052665;28;20048;-53
2020/12/26 10:28:14;;;;;;;24.10;13.82;;;3.20;99.90;;;;;;5053036;28;20047;-55
2020/12/26 10:30:40;;;;;;;23.17;13.40;;;3.20;99.90;;;;;;5035035;28;20112;-58
2020/12/26 10:33:05;;;;;;;19.60;13.50;;;3.30;99.90;;;;;;5051929;28;20028;-55
2020/12/26 10:35:31;;;;;;;24.83;13.30;;;3.50;99.90;;;;;;5052561;28;20044;-62
2020/12/26 10:37:56;;;;;;;23.25;13.68;;;3.60;99.90;;;;;;5051653;28;20094;-57
2020/12/26 10:40:22;;;;;;;27.42;12.93;;;3.50;99.90;;;;;;5052443;28;20021;-57
2020/12/26 10:42:47;;;;;;;24.13;13.70;;;3.50;99.90;;;;;;5050975;28;20033;-59
2020/12/26 10:45:13;;;;;;;23.40;12.18;;;3.50;99.90;;;;;;5052145;28;20051;-56
2020/12/26 10:47:38;;;;;;;20.08;12.18;;;3.50;99.90;;;;;;5052717;28;20037;-58
2020/12/26 10:50:04;;;;;;;22.55;12.32;;;3.50;99.90;;;;;;5052165;28;20375;-56
2020/12/26 10:52:29;;;;;;;20.58;13.20;;;3.60;99.90;;;;;;5033117;28;20063;-58
2020/12/26 10:54:55;;;;;;;23.58;12.75;;;3.60;99.90;;;;;;5051607;28;20033;-60
2020/12/26 10:57:21;;;;;;;21.10;11.80;;;3.60;99.90;;;;;;5052046;28;20021;-57
2020/12/26 10:59:46;;;;;;;19.75;11.68;;;3.60;99.90;;;;;;5051760;28;20025;-53
2020/12/26 11:02:12;;;;;;;18.30;11.65;;;3.70;99.90;;;;;;5033278;28;20112;-57
2020/12/26 11:04:37;;;;;;;22.02;12.38;;;3.70;99.90;;;;;;5034095;28;20394;-54
2020/12/26 11:07:04;;;;;;;22.38;11.52;;;3.60;99.90;;;;;;5051933;28;20028;-55
2020/12/26 11:09:30;;;;;;;34.17;12.93;;;3.60;99.90;;;;;;5050475;28;20025;-60
2020/12/26 11:11:55;;;;;;;22.08;12.50;;;3.60;99.90;;;;;;5049570;28;20025;-61
2020/12/26 11:14:21;;;;;;;18.48;11.00;;;3.70;99.90;;;;;;5022286;28;20089;-56
2020/12/26 11:16:47;;;;;;;17.27;12.45;;;3.70;99.90;;;;;;5033818;28;20029;-59
2020/12/26 11:19:13;;;;;;;21.00;12.48;;;3.90;99.90;;;;;;5051155;28;20025;-49
2020/12/26 11:21:39;;;;;;;18.25;12.18;;;4.00;99.90;;;;;;5051084;28;20059;-53
2020/12/26 11:24:04;;;;;;;19.77;11.18;;;4.10;99.90;;;;;;5033028;28;20021;-50
2020/12/26 11:26:30;;;;;;;17.88;9.30;;;4.10;99.90;;;;;;5051661;28;20061;-49
2020/12/26 11:28:55;;;;;;;19.58;11.30;;;4.10;99.90;;;;;;5033055;28;20385;-50
2020/12/26 11:31:25;;;;;;;19.63;10.20;;;4.10;99.90;;;;;;5041927;28;20316;-53
2020/12/26 11:33:51;;;;;;;21.58;10.52;;;4.10;99.90;;;;;;5034371;28;20498;-51
2020/12/26 11:36:27;;;;;;;17.73;10.25;;;4.20;99.90;;;;;;5034760;28;20017;-48
2020/12/26 11:38:53;;;;;;;14.48;9.77;;;4.10;99.90;;;;;;5051455;28;20025;-50
2020/12/26 11:41:21;;;;;;;13.90;9.60;;;4.20;99.90;;;;;;5033449;28;20485;-51
2020/12/26 11:43:47;;;;;;;16.10;9.63;;;4.30;99.90;;;;;;5050209;28;20033;-56
2020/12/26 11:46:13;;;;;;;12.10;8.70;;;4.40;99.90;;;;;;5051354;28;20405;-54
2020/12/26 11:48:39;;;;;;;18.23;9.40;;;4.50;99.90;;;;;;5046607;28;20068;-54
2020/12/26 11:51:05;;;;;;;13.93;7.93;;;4.50;99.90;;;;;;5012998;28;20021;-49
2020/12/26 11:53:31;;;;;;;18.90;8.73;;;4.60;99.90;;;;;;5015556;28;20021;-50
2020/12/26 11:55:56;;;;;;;12.10;7.90;;;4.80;99.90;;;;;;5050953;28;20493;-50
2020/12/26 11:58:23;;;;;;;10.57;6.82;;;4.80;99.90;;;;;;5049291;28;20029;-52
2020/12/26 12:00:51;;;;;;;11.88;7.35;;;4.80;99.90;;;;;;5030449;28;20029;-53
2020/12/26 12:03:17;;;;;;;11.10;7.30;;;4.70;99.90;;;;;;5012451;28;20029;-51
2020/12/26 12:05:43;;;;;;;13.75;8.50;;;4.80;99.90;;;;;;5050113;28;20017;-50
2020/12/26 12:08:09;;;;;;;11.85;7.93;;;4.70;99.90;;;;;;5032771;28;20388;-53
2020/12/26 12:10:34;;;;;;;12.57;8.23;;;4.70;99.90;;;;;;5013691;28;20061;-53
2020/12/26 12:13:00;;;;;;;14.23;8.80;;;4.60;99.90;;;;;;5030524;28;20037;-52
2020/12/26 12:15:25;;;;;;;17.80;8.80;;;4.50;99.90;;;;;;5048359;28;20108;-49
2020/12/26 12:17:51;;;;;;;13.13;8.40;;;4.60;99.90;;;;;;5050811;28;20033;-56
2020/12/26 12:20:16;;;;;;;12.90;8.55;;;4.50;99.90;;;;;;5034967;28;20029;-54
2020/12/26 12:22:42;;;;;;;14.30;8.52;;;4.60;99.90;;;;;;5029604;28;20028;-54
2020/12/26 12:25:08;;;;;;;16.27;8.35;;;4.60;99.90;;;;;;5035124;28;20028;-50
2020/12/26 12:27:33;;;;;;;15.27;9.25;;;4.60;99.90;;;;;;5023684;28;20017;-54
2020/12/26 12:29:59;;;;;;;17.33;8.18;;;4.60;99.90;;;;;;5015425;28;20075;-57
2020/12/26 12:32:24;;;;;;;15.55;9.18;;;4.60;99.90;;;;;;5051448;28;20021;-55
2020/12/26 12:34:50;;;;;;;15.88;8.55;;;4.50;99.90;;;;;;5054492;28;20037;-55
2020/12/26 12:37:15;;;;;;;16.60;9.32;;;4.50;99.90;;;;;;5052636;28;20506;-55
2020/12/26 12:39:41;;;;;;;16.95;9.68;;;4.50;99.90;;;;;;5042951;28;20025;-56